createdAt,value
2022-09-28T00:02:03.005Z,9.80
2022-09-28T00:04:33.212Z,8.23
2022-09-28T00:07:03.469Z,6.72
2022-09-28T00:09:32.361Z,5.10
2022-09-28T00:12:01.215Z,11.20
2022-09-28T00:14:31.806Z,5.57
2022-09-28T00:17:00.664Z,5.85
2022-09-28T00:19:29.504Z,9.48
2022-09-28T00:21:58.345Z,8.05
2022-09-28T00:24:30.529Z,4.82
2022-09-28T00:27:02.584Z,8.15
2022-09-28T00:29:32.988Z,12.68
2022-09-28T00:32:03.620Z,6.53
2022-09-28T00:34:34.718Z,8.75
2022-09-28T00:37:05.789Z,4.88
2022-09-28T00:39:38.254Z,6.80
2022-09-28T00:42:14.369Z,5.57
2022-09-28T00:44:48.047Z,6.97
2022-09-28T00:47:46.753Z,6.18
2022-09-28T00:50:21.575Z,5.78
2022-09-28T00:52:54.548Z,4.78
2022-09-28T00:55:31.468Z,4.47
2022-09-28T00:58:04.850Z,4.55
2022-09-28T01:00:33.796Z,7.85
2022-09-28T01:03:02.616Z,12.10
2022-09-28T01:05:31.902Z,11.30
2022-09-28T01:08:02.805Z,6.85
2022-09-28T01:10:33.619Z,5.70
2022-09-28T01:13:02.499Z,6.43
2022-09-28T01:15:37.723Z,15.38
2022-09-28T01:18:18.320Z,6.57
2022-09-28T01:20:55.935Z,5.63
2022-09-28T01:23:49.757Z,6.50
2022-09-28T01:26:48.232Z,13.27
2022-09-28T01:29:27.081Z,8.48
2022-09-28T01:32:10.993Z,9.10
2022-09-28T01:34:45.271Z,9.50
2022-09-28T01:37:19.740Z,3.78
2022-09-28T01:39:51.177Z,2.92
2022-09-28T01:42:25.678Z,6.45
2022-09-28T01:44:58.112Z,12.67
2022-09-28T01:47:28.565Z,10.50
2022-09-28T01:50:06.075Z,6.07
2022-09-28T01:52:41.079Z,8.18
2022-09-28T01:55:15.258Z,6.15
2022-09-28T01:57:51.524Z,8.45
2022-09-28T02:00:21.753Z,3.47
2022-09-28T02:03:00.445Z,8.13
2022-09-28T02:05:40.537Z,8.65
2022-09-28T02:08:14.523Z,8.15
2022-09-28T02:10:46.697Z,13.27
2022-09-28T02:13:22.022Z,16.20
2022-09-28T02:15:54.967Z,10.82
2022-09-28T02:18:23.921Z,8.70
2022-09-28T02:21:02.389Z,11.15
2022-09-28T02:23:36.317Z,9.98
2022-09-28T02:26:10.195Z,5.88
2022-09-28T02:28:40.695Z,7.28
2022-09-28T02:31:09.686Z,10.07
2022-09-28T02:33:41.053Z,12.32
2022-09-28T02:36:10.559Z,6.95
2022-09-28T02:38:40.669Z,10.45
2022-09-28T02:41:22.931Z,8.88
2022-09-28T02:44:04.568Z,6.78
2022-09-28T02:46:46.448Z,6.45
2022-09-28T02:49:32.528Z,13.07
2022-09-28T02:52:27.854Z,5.80
2022-09-28T02:55:14.445Z,6.37
2022-09-28T02:57:55.470Z,6.72
2022-09-28T03:00:25.972Z,7.70
2022-09-28T03:03:05.413Z,7.53
2022-09-28T03:05:44.521Z,4.90
2022-09-28T03:08:21.518Z,4.65
2022-09-28T03:10:57.112Z,2.83
2022-09-28T03:13:28.103Z,7.40
2022-09-28T03:16:13.102Z,4.15
2022-09-28T03:18:43.639Z,4.03
2022-09-28T03:21:13.946Z,6.70
2022-09-28T03:23:43.691Z,8.90
2022-09-28T03:26:13.726Z,11.20
2022-09-28T03:28:42.623Z,13.55
2022-09-28T03:31:17.979Z,10.20
2022-09-28T03:33:46.988Z,8.82
2022-09-28T03:36:15.900Z,4.10
2022-09-28T03:38:44.840Z,4.32
2022-09-28T03:41:13.738Z,4.30
2022-09-28T03:43:44.835Z,6.25
2022-09-28T03:46:17.130Z,6.03
2022-09-28T03:48:51.132Z,4.53
2022-09-28T03:51:19.975Z,6.57
2022-09-28T03:53:48.755Z,10.32
2022-09-28T03:56:18.481Z,8.27
2022-09-28T03:58:48.008Z,13.43
2022-09-28T04:01:18.944Z,12.43
2022-09-28T04:03:54.053Z,13.13
2022-09-28T04:06:23.558Z,16.63
2022-09-28T04:08:52.839Z,8.57
2022-09-28T04:11:22.012Z,7.95
2022-09-28T04:13:51.266Z,14.48
2022-09-28T04:16:22.068Z,11.73
2022-09-28T04:18:59.598Z,20.33
2022-09-28T04:21:54.667Z,8.35
2022-09-28T04:24:24.299Z,10.70
2022-09-28T04:27:13.595Z,6.07
2022-09-28T04:29:41.822Z,16.33
2022-09-28T04:32:12.823Z,11.93
2022-09-28T04:34:44.254Z,12.38
2022-09-28T04:37:13.609Z,10.35
2022-09-28T04:39:47.487Z,7.72
2022-09-28T04:42:19.648Z,9.48
2022-09-28T04:44:51.065Z,5.57
2022-09-28T04:47:21.557Z,5.93
2022-09-28T04:49:50.517Z,5.82
2022-09-28T04:52:22.377Z,14.57
2022-09-28T04:54:51.258Z,11.45
2022-09-28T04:57:20.052Z,7.47
2022-09-28T04:59:48.914Z,10.57
2022-09-28T05:02:17.758Z,9.23
2022-09-28T05:05:07.271Z,4.20
2022-09-28T05:08:07.336Z,6.25
2022-09-28T05:10:36.727Z,5.30
2022-09-28T05:13:05.540Z,4.68
2022-09-28T05:15:35.793Z,4.57
2022-09-28T05:18:05.540Z,7.20
2022-09-28T05:20:57.336Z,9.07
2022-09-28T05:23:26.192Z,10.35
2022-09-28T05:25:57.486Z,5.82
2022-09-28T05:28:30.567Z,8.68
2022-09-28T05:31:18.028Z,7.20
2022-09-28T05:34:05.805Z,3.75
2022-09-28T05:36:36.117Z,8.40
2022-09-28T05:39:05.158Z,11.27
2022-09-28T05:41:34.054Z,8.65
2022-09-28T05:44:03.169Z,8.10
2022-09-28T05:46:32.577Z,5.80
2022-09-28T05:49:03.107Z,7.03
2022-09-28T05:51:31.901Z,2.63
2022-09-28T05:54:06.030Z,3.17
2022-09-28T05:56:48.076Z,4.00
2022-09-28T05:59:18.205Z,4.43
2022-09-28T06:01:47.039Z,4.38
2022-09-28T06:04:17.250Z,3.85
2022-09-28T06:06:47.367Z,3.08
2022-09-28T06:09:17.544Z,2.90
2022-09-28T06:12:05.177Z,3.40
2022-09-28T06:14:54.189Z,6.20
2022-09-28T06:17:24.893Z,2.75
2022-09-28T06:20:14.019Z,5.00
2022-09-28T06:23:09.202Z,3.60
2022-09-28T06:25:39.689Z,10.73
2022-09-28T06:28:11.566Z,4.25
2022-09-28T06:30:42.436Z,2.60
2022-09-28T06:33:16.379Z,3.83
2022-09-28T06:35:45.518Z,3.08
2022-09-28T06:38:14.402Z,2.60
2022-09-28T06:40:44.724Z,2.85
2022-09-28T06:43:15.859Z,6.97
2022-09-28T06:46:03.887Z,3.05
2022-09-28T06:48:51.395Z,2.20
2022-09-28T06:51:42.735Z,3.42
2022-09-28T06:54:22.754Z,3.38
2022-09-28T06:57:01.053Z,3.63
2022-09-28T06:59:31.832Z,6.68
2022-09-28T07:02:02.664Z,1.77
2022-09-28T07:04:49.844Z,1.65
2022-09-28T07:07:51.995Z,2.22
2022-09-28T07:10:43.846Z,1.30
2022-09-28T07:13:49.156Z,1.27
2022-09-28T07:16:25.653Z,1.25
2022-09-28T07:18:56.244Z,1.85
2022-09-28T07:21:30.130Z,2.60
2022-09-28T07:24:02.432Z,1.88
2022-09-28T07:26:49.819Z,2.80
2022-09-28T07:29:32.860Z,1.83
2022-09-28T07:32:14.710Z,0.88
2022-09-28T07:34:58.984Z,3.25
2022-09-28T07:37:44.603Z,1.00
2022-09-28T07:40:31.045Z,3.00
2022-09-28T07:43:05.655Z,2.05
2022-09-28T07:45:38.319Z,2.70
2022-09-28T07:48:07.414Z,0.85
2022-09-28T07:50:51.796Z,1.15
2022-09-28T07:53:40.956Z,0.65
2022-09-28T07:56:34.032Z,0.60
2022-09-28T07:59:37.949Z,0.30
2022-09-28T08:02:43.562Z,0.70
2022-09-28T08:05:13.991Z,0.60
2022-09-28T08:07:44.401Z,0.85
2022-09-28T08:10:14.083Z,0.52
2022-09-28T08:13:04.760Z,2.28
2022-09-28T08:15:56.140Z,0.85
2022-09-28T08:18:36.945Z,0.38
2022-09-28T08:21:24.869Z,0.68
2022-09-28T08:23:54.088Z,0.70
2022-09-28T08:26:22.937Z,0.82
2022-09-28T08:28:51.942Z,2.45
2022-09-28T08:31:39.218Z,0.88
2022-09-28T08:34:24.643Z,0.52
2022-09-28T08:36:59.205Z,1.08
2022-09-28T08:39:46.746Z,0.77
2022-09-28T08:42:41.141Z,2.40
2022-09-28T08:45:36.520Z,1.55
2022-09-28T08:51:31.468Z,0.40
2022-09-28T08:54:12.048Z,5.75
2022-09-28T08:56:55.621Z,0.63
2022-09-28T08:59:28.237Z,0.57
2022-09-28T09:02:05.520Z,1.75
2022-09-28T09:04:36.077Z,0.60
2022-09-28T09:08:07.124Z,3.57
2022-09-28T09:10:48.765Z,0.20
2022-09-28T09:13:39.671Z,0.83
2022-09-28T09:16:17.364Z,0.75
2022-09-28T09:19:12.383Z,1.50
2022-09-28T09:22:03.139Z,3.92
2022-09-28T09:24:47.817Z,4.28
2022-09-28T09:27:30.171Z,0.50
2022-09-28T09:30:06.933Z,3.03
2022-09-28T09:32:54.709Z,0.50
2022-09-28T09:35:42.058Z,0.90
2022-09-28T09:38:42.655Z,0.43
2022-09-28T09:41:44.586Z,0.88
2022-09-28T09:45:01.891Z,0.57
2022-09-28T09:47:55.109Z,1.10
2022-09-28T09:50:30.856Z,0.65
2022-09-28T09:53:06.092Z,0.25
2022-09-28T09:55:40.739Z,1.17
2022-09-28T09:58:39.011Z,0.25
2022-09-28T10:01:35.488Z,0.60
2022-09-28T10:07:02.785Z,0.70
2022-09-28T10:09:38.241Z,2.15
2022-09-28T10:12:24.709Z,0.77
2022-09-28T10:14:55.380Z,0.38
2022-09-28T10:17:27.953Z,0.98
2022-09-28T10:20:17.231Z,0.85
2022-09-28T10:23:06.874Z,0.20
2022-09-28T10:25:39.516Z,0.20
2022-09-28T10:28:15.537Z,0.73
2022-09-28T10:30:46.132Z,0.30
2022-09-28T10:33:33.196Z,0.10
2022-09-28T10:36:06.245Z,0.30
2022-09-28T10:38:35.605Z,2.30
2022-09-28T10:44:10.289Z,0.10
2022-09-28T10:46:57.867Z,0.73
2022-09-28T10:49:28.588Z,0.68
2022-09-28T10:52:00.259Z,1.30
2022-09-28T10:54:37.097Z,0.20
2022-09-28T10:57:28.950Z,0.10
2022-09-28T11:00:08.392Z,0.20
2022-09-28T11:02:50.280Z,0.75
2022-09-28T11:05:27.927Z,0.60
2022-09-28T11:08:01.693Z,0.10
2022-09-28T11:10:37.968Z,0.30
2022-09-28T11:13:13.648Z,0.32
2022-09-28T11:15:46.865Z,0.50
2022-09-28T11:18:32.393Z,0.20
2022-09-28T11:21:14.342Z,0.52
2022-09-28T11:24:07.485Z,1.20
2022-09-28T11:26:44.078Z,0.50
2022-09-28T11:29:27.684Z,0.32
2022-09-28T11:32:44.028Z,1.30
2022-09-28T11:35:26.362Z,0.55
2022-09-28T11:38:18.955Z,0.52
2022-09-28T11:41:35.091Z,0.10
2022-09-28T11:44:31.096Z,0.35
2022-09-28T11:47:50.664Z,1.65
2022-09-28T11:50:30.232Z,1.40
2022-09-28T11:53:10.945Z,0.10
2022-09-28T11:55:44.483Z,0.73
2022-09-28T11:58:18.623Z,0.70
2022-09-28T12:00:51.965Z,0.22
2022-09-28T12:03:30.747Z,0.25
2022-09-28T12:06:05.148Z,3.33
2022-09-28T12:08:38.560Z,0.20
2022-09-28T12:11:14.102Z,2.63
2022-09-28T12:14:05.062Z,0.65
2022-09-28T12:19:34.960Z,1.48
2022-09-28T12:22:13.659Z,0.10
2022-09-28T12:24:47.595Z,0.95
2022-09-28T12:27:22.097Z,0.60
2022-09-28T12:29:58.904Z,2.50
2022-09-28T12:32:35.750Z,0.70
2022-09-28T12:35:11.722Z,0.57
2022-09-28T12:37:55.034Z,0.77
2022-09-28T12:40:37.189Z,1.55
2022-09-28T12:43:35.098Z,0.60
2022-09-28T12:46:25.145Z,0.20
2022-09-28T12:52:28.478Z,0.57
2022-09-28T12:55:26.610Z,0.60
2022-09-28T12:58:03.279Z,0.63
2022-09-28T13:00:41.217Z,0.30
2022-09-28T13:03:45.626Z,0.20
2022-09-28T13:06:33.630Z,0.85
2022-09-28T13:09:22.190Z,1.17
2022-09-28T13:12:05.224Z,0.52
2022-09-28T13:15:15.837Z,1.90
2022-09-28T13:17:55.245Z,0.20
2022-09-28T13:20:53.313Z,0.43
2022-09-28T13:23:24.772Z,0.20
2022-09-28T13:25:58.230Z,2.10
2022-09-28T13:28:30.301Z,0.32
2022-09-28T13:31:02.212Z,0.60
2022-09-28T13:33:36.947Z,4.30
2022-09-28T13:36:39.035Z,0.45
2022-09-28T13:39:39.778Z,0.68
2022-09-28T13:42:10.436Z,0.43
2022-09-28T13:44:59.512Z,0.55
2022-09-28T13:47:56.371Z,4.18
2022-09-28T13:50:34.364Z,6.35
2022-09-28T13:53:13.868Z,3.88
2022-09-28T13:55:54.905Z,0.30
2022-09-28T13:58:28.583Z,6.97
2022-09-28T14:01:05.296Z,2.92
2022-09-28T14:03:55.061Z,0.63
2022-09-28T14:06:27.073Z,0.20
2022-09-28T14:09:24.825Z,0.52
2022-09-28T14:12:01.787Z,0.82
2022-09-28T14:14:48.679Z,0.50
2022-09-28T14:17:59.543Z,2.35
2022-09-28T14:20:31.886Z,3.95
2022-09-28T14:23:22.140Z,0.32
2022-09-28T14:26:13.763Z,2.63
2022-09-28T14:28:57.724Z,4.90
2022-09-28T14:31:29.156Z,0.90
2022-09-28T14:34:02.688Z,0.40
2022-09-28T14:36:57.331Z,3.38
2022-09-28T14:39:48.628Z,0.50
2022-09-28T14:42:20.371Z,0.65
2022-09-28T14:45:21.906Z,0.60
2022-09-28T14:48:15.227Z,0.38
2022-09-28T14:50:47.236Z,0.68
2022-09-28T14:53:21.364Z,6.15
2022-09-28T14:55:52.465Z,3.17
2022-09-28T14:58:25.142Z,2.90
2022-09-28T15:01:03.487Z,2.30
2022-09-28T15:03:35.368Z,3.00
2022-09-28T15:06:05.976Z,2.03
2022-09-28T15:08:39.623Z,2.85
2022-09-28T15:11:23.747Z,6.75
2022-09-28T15:14:07.212Z,12.00
2022-09-28T15:16:36.129Z,18.50
2022-09-28T15:19:25.384Z,17.10
2022-09-28T15:21:55.855Z,17.38
2022-09-28T15:24:26.081Z,4.03
2022-09-28T15:26:56.778Z,1.58
2022-09-28T15:29:27.376Z,3.55
2022-09-28T15:31:56.288Z,3.05
2022-09-28T15:34:48.120Z,5.13
2022-09-28T15:37:21.925Z,4.15
2022-09-28T15:39:51.866Z,11.73
2022-09-28T15:42:20.947Z,12.70
2022-09-28T15:45:24.861Z,16.17
2022-09-28T15:47:58.656Z,8.43
2022-09-28T15:50:30.046Z,3.25
2022-09-28T15:53:03.491Z,4.32
2022-09-28T15:55:35.853Z,3.08
2022-09-28T15:58:17.252Z,2.53
2022-09-28T16:00:47.114Z,7.35
2022-09-28T16:03:31.236Z,10.00
2022-09-28T16:06:08.755Z,9.43
2022-09-28T16:08:43.630Z,10.82
2022-09-28T16:11:18.268Z,7.00
2022-09-28T16:13:57.286Z,8.50
2022-09-28T16:16:30.576Z,6.80
2022-09-28T16:19:01.763Z,7.90
2022-09-28T16:21:48.275Z,7.88
2022-09-28T16:24:25.272Z,10.50
2022-09-28T16:27:00.303Z,5.78
2022-09-28T16:29:36.627Z,14.85
2022-09-28T16:32:38.603Z,18.33
2022-09-28T16:35:19.248Z,26.90
2022-09-28T16:37:50.471Z,19.95
2022-09-28T16:40:20.878Z,19.80
2022-09-28T16:42:50.023Z,8.25
2022-09-28T16:45:21.690Z,7.18
2022-09-28T16:47:53.033Z,8.82
2022-09-28T16:50:22.651Z,8.55
2022-09-28T16:53:15.115Z,7.00
2022-09-28T16:55:46.320Z,8.30
2022-09-28T16:58:15.632Z,8.40
2022-09-28T17:00:45.866Z,20.17
2022-09-28T17:03:17.398Z,21.92
2022-09-28T17:05:48.025Z,17.65
2022-09-28T17:08:18.962Z,7.93
2022-09-28T17:13:47.212Z,12.13
2022-09-28T17:16:18.510Z,12.43
2022-09-28T17:18:48.374Z,9.52
2022-09-28T17:21:19.059Z,15.98
2022-09-28T17:23:49.590Z,14.02
2022-09-28T17:26:30.301Z,14.10
2022-09-28T17:28:59.977Z,10.38
2022-09-28T17:31:29.997Z,11.02
2022-09-28T17:33:58.907Z,9.48
2022-09-28T17:36:28.169Z,11.02
2022-09-28T17:38:57.270Z,11.68
2022-09-28T17:41:27.860Z,12.45
2022-09-28T17:43:57.286Z,14.70
2022-09-28T17:46:29.476Z,12.02
2022-09-28T17:49:00.525Z,16.70
2022-09-28T17:51:30.241Z,14.95
2022-09-28T17:54:00.995Z,10.48
2022-09-28T17:56:32.748Z,9.95
2022-09-28T17:59:04.949Z,15.80
2022-09-28T18:01:40.847Z,35.85
2022-09-28T18:04:22.988Z,17.67
2022-09-28T18:07:00.972Z,17.45
2022-09-28T18:09:29.985Z,10.80
2022-09-28T18:12:05.083Z,8.55
2022-09-28T18:14:33.919Z,18.33
2022-09-28T18:17:02.997Z,8.05
2022-09-28T18:19:32.470Z,15.25
2022-09-28T18:22:02.397Z,13.10
2022-09-28T18:24:32.536Z,34.70
2022-09-28T18:27:02.912Z,13.57
2022-09-28T18:29:33.462Z,11.07
2022-09-28T18:32:03.427Z,8.05
2022-09-28T18:34:32.386Z,7.10
2022-09-28T18:37:01.168Z,6.90
2022-09-28T18:39:30.466Z,7.72
2022-09-28T18:41:59.396Z,11.98
2022-09-28T18:44:29.597Z,14.07
2022-09-28T18:46:58.548Z,14.13
2022-09-28T18:49:27.345Z,10.65
2022-09-28T18:51:56.505Z,18.88
2022-09-28T18:54:25.460Z,11.52
2022-09-28T18:56:56.359Z,16.08
2022-09-28T18:59:26.350Z,10.15
2022-09-28T19:01:56.631Z,9.45
2022-09-28T19:04:25.728Z,9.05
2022-09-28T19:06:54.546Z,15.02
2022-09-28T19:09:24.702Z,20.92
2022-09-28T19:11:53.576Z,46.63
2022-09-28T19:14:22.534Z,25.08
2022-09-28T19:16:51.388Z,16.92
2022-09-28T19:19:22.067Z,16.35
2022-09-28T19:21:51.031Z,11.43
2022-09-28T19:24:20.898Z,7.55
2022-09-28T19:26:50.912Z,8.68
2022-09-28T19:29:20.145Z,11.48
2022-09-28T19:31:50.482Z,9.77
2022-09-28T19:34:19.723Z,28.90
2022-09-28T19:36:50.076Z,28.63
2022-09-28T19:39:18.989Z,27.70
2022-09-28T19:41:51.308Z,14.65
2022-09-28T19:44:25.688Z,7.68
2022-09-28T19:46:56.049Z,5.80
2022-09-28T19:49:26.718Z,6.80
2022-09-28T19:52:14.909Z,5.85
2022-09-28T19:54:45.841Z,6.53
2022-09-28T19:57:16.156Z,5.55
2022-09-28T19:59:49.491Z,9.98
2022-09-28T20:02:21.807Z,24.05
2022-09-28T20:04:50.650Z,32.38
2022-09-28T20:07:21.651Z,32.15
2022-09-28T20:09:50.537Z,31.00
2022-09-28T20:12:19.384Z,29.95
2022-09-28T20:14:48.216Z,27.38
2022-09-28T20:17:17.088Z,52.75
2022-09-28T20:19:45.958Z,36.33
2022-09-28T20:22:16.539Z,18.38
2022-09-28T20:24:46.829Z,25.58
2022-09-28T20:27:15.675Z,36.40
2022-09-28T20:29:44.642Z,33.05
2022-09-28T20:32:14.275Z,26.98
2022-09-28T20:34:43.087Z,36.38
2022-09-28T20:37:14.037Z,27.02
2022-09-28T20:39:45.093Z,20.90
2022-09-28T20:42:15.819Z,26.60
2022-09-28T20:44:44.755Z,23.30
2022-09-28T20:47:13.615Z,68.03
2022-09-28T20:49:42.525Z,30.38
2022-09-28T20:52:11.766Z,16.33
2022-09-28T20:54:40.704Z,12.10
2022-09-28T20:57:18.372Z,16.88
2022-09-28T20:59:54.316Z,18.90
2022-09-28T21:02:23.917Z,19.85
2022-09-28T21:04:52.759Z,95.15
2022-09-28T21:07:21.773Z,23.85
2022-09-28T21:09:50.969Z,33.20
2022-09-28T21:12:19.973Z,16.92
2022-09-28T21:14:50.241Z,20.20
2022-09-28T21:17:19.108Z,21.10
2022-09-28T21:19:48.079Z,30.35
2022-09-28T21:22:16.901Z,73.70
2022-09-28T21:24:45.699Z,206.70
2022-09-28T21:27:14.534Z,241.98
2022-09-28T21:29:43.304Z,87.30
2022-09-28T21:32:13.583Z,65.43
2022-09-28T21:34:42.485Z,172.98
2022-09-28T21:37:11.271Z,160.98
2022-09-28T21:39:40.171Z,131.40
2022-09-28T21:42:08.945Z,106.40
2022-09-28T21:44:37.776Z,56.17
2022-09-28T21:47:06.568Z,68.18
2022-09-28T21:49:36.880Z,62.30
2022-09-28T21:52:05.712Z,82.68
2022-09-28T21:54:37.324Z,61.42
2022-09-28T21:57:06.940Z,56.63
2022-09-28T21:59:35.687Z,60.75
2022-09-28T22:02:05.878Z,56.22
2022-09-28T22:04:36.561Z,41.05
2022-09-28T22:07:05.358Z,44.50
2022-09-28T22:09:34.400Z,46.55
2022-09-28T22:12:03.345Z,45.05
2022-09-28T22:14:32.327Z,21.52
2022-09-28T22:17:01.186Z,27.05
2022-09-28T22:19:29.961Z,12.90
2022-09-28T22:22:00.212Z,18.77
2022-09-28T22:24:29.066Z,18.77
2022-09-28T22:26:57.865Z,13.75
2022-09-28T22:29:26.909Z,13.73
2022-09-28T22:32:00.306Z,18.45
2022-09-28T22:34:30.868Z,16.45
2022-09-28T22:37:02.408Z,13.43
2022-09-28T22:39:36.687Z,15.30
2022-09-28T22:44:36.731Z,24.92
2022-09-28T22:47:05.723Z,28.88
2022-09-28T22:49:34.499Z,17.60
2022-09-28T22:52:04.706Z,16.45
2022-09-28T22:54:33.748Z,23.98
2022-09-28T22:57:02.553Z,16.48
2022-09-28T22:59:31.386Z,16.35
2022-09-28T23:02:00.257Z,17.08
2022-09-28T23:04:29.386Z,11.43
2022-09-28T23:06:58.216Z,10.85
2022-09-28T23:09:28.507Z,14.00
2022-09-28T23:11:57.321Z,16.10
2022-09-28T23:14:26.675Z,13.25
2022-09-28T23:16:55.482Z,7.95
2022-09-28T23:19:24.354Z,12.93
2022-09-28T23:21:54.545Z,17.45
2022-09-28T23:24:23.536Z,17.70
2022-09-28T23:26:53.717Z,14.98
2022-09-28T23:29:22.713Z,13.57
2022-09-28T23:31:51.513Z,28.10
2022-09-28T23:34:20.479Z,17.30
2022-09-28T23:36:49.269Z,19.45
2022-09-28T23:39:18.245Z,25.02
2022-09-28T23:41:47.162Z,21.80
2022-09-28T23:44:17.443Z,17.67
2022-09-28T23:46:46.495Z,15.57
2022-09-28T23:49:15.543Z,13.68
2022-09-28T23:51:44.383Z,12.88
2022-09-28T23:54:13.203Z,16.73
2022-09-28T23:56:42.070Z,13.63
2022-09-28T23:59:10.922Z,12.10
